Ikan Bagat — 3EYX8 — position and weather

sailwx.info

Track history (hours):
 
Tides and Currents Weather Stations Pressure Air Temp Water Temp Dewpoint Dewpoint Depression Visibility Wind Speed Wind Dir Waves Ship Positions

Ikan Bagat

Last reported at 2016-Jun-24 04:33 UTC. Time now 2016-Jul-01 06:25 UTC.
Position S 32°57' E 152°25'.

Length 229 m; draft 7.2 m.

Type: Ship. MMSI: 354375000.

Date/timePositionNaut miles runAvg speedWind from/ knotsBaromVisibWave heightAir tempDewpointWater temp
2016-Jun-24 04:33S 32°57' E 152°25'1212.1
2016-Jun-24 03:34S 32°47' E 152°34'1111.4
2016-Jun-24 02:34S 32°37' E 152°40'1712.8
2016-Jun-24 01:12S 32°23' E 152°52'28214.1
2016-Jun-23 05:12S 27°46' E 153°55'813.2
2016-Jun-23 04:33S 27°37' E 153°56'3112.7
2016-Jun-23 02:05S 27°06' E 153°57'712.5
2016-Jun-23 01:33S 26°59' E 153°57'1412.5
2016-Jun-23 00:27S 26°45' E 153°58'1212.5
2016-Jun-22 23:29S 26°33' E 153°58'1212.8
2016-Jun-22 22:33S 26°21' E 153°59'1413.1
2016-Jun-22 21:31S 26°08' E 153°60'  
Track history (hours):
 
Tides and Currents Weather Stations Pressure Air Temp Water Temp Dewpoint Dewpoint Depression Visibility Wind Speed Wind Dir Waves Ship Positions

Ikan Bagat

Last reported at 2016-Jun-24 04:33 UTC. Time now 2016-Jul-01 06:25 UTC.
Position S 32°57' E 152°25'.

Length 229 m; draft 7.2 m.

Type: Ship. MMSI: 354375000.

Date/timePositionNaut miles runAvg speedWind from/ knotsBaromVisibWave heightAir tempDewpointWater temp
2016-Jun-24 04:33S 32°57' E 152°25'1212.1
2016-Jun-24 03:34S 32°47' E 152°34'1111.4
2016-Jun-24 02:34S 32°37' E 152°40'1712.8
2016-Jun-24 01:12S 32°23' E 152°52'28214.1
2016-Jun-23 05:12S 27°46' E 153°55'813.2
2016-Jun-23 04:33S 27°37' E 153°56'3112.7
2016-Jun-23 02:05S 27°06' E 153°57'712.5
2016-Jun-23 01:33S 26°59' E 153°57'1412.5
2016-Jun-23 00:27S 26°45' E 153°58'1212.5
2016-Jun-22 23:29S 26°33' E 153°58'1212.8
2016-Jun-22 22:33S 26°21' E 153°59'1413.1
2016-Jun-22 21:31S 26°08' E 153°60'  

Dump ship's entire track history